KJFK/JFK METAR and TAF weather

Enter ICAO airport designator
Station Type Date Time Source
KJFK METAR 2022/06/27 07:51 UTC NOAA

KJFK 270751Z 19012KT 10SM OVC055 21/19 A2999 RMK AO2 SLP154 T02110189 $


Station Type Date Time Source
KJFK Decoded METAR 2022/06/27 07:51 UTC NOAA

KENNEDY INTERNATIONAL AIRPORT , NY, United States (KJFK) 40-38N 073-46W 9M
Jun 27, 2022 - 03:51 AM EDT / 2022.06.27 0751 UTC
Wind: from the S (190 degrees) at 14 MPH (12 KT):0
Visibility: 10 mile(s):0
Sky conditions: overcast
Temperature: 70.0 F (21.1 C)
Dew Point: 66.0 F (18.9 C)
Relative Humidity: 87%
Pressure (altimeter): 29.99 in. Hg (1015 hPa)
ob: KJFK 270751Z 19012KT 10SM OVC055 21/19 A2999 RMK AO2 SLP154 T02110189
cycle: 8

Station Type Date Time Source
KJFK TAF 2022/06/27 09:36 UTC NOAA

TAF
AMD KJFK 270836Z 2709/2812 20014KT P6SM BKN050
TEMPO 2713/2715 5SM -SHRA BKN040
FM271500 21015KT 4SM SHRA BR OVC015
TEMPO 2716/2720 26015G30KT 3SM TSRA OVC012CB
FM272000 22010KT P6SM SCT060
FM280300 34011KT P6SM SCT060

Example: see airport list